Time;durP1;ratioP1;P1;durP2;ratioP2;P2;SDS_P1;SDS_P2;PMS_P1;PMS_P2;Temp;Humidity;BMP_temperature;BMP_pressure;BME280_temperature;BME280_humidity;BME280_pressure;Samples;Min_cycle;Max_cycle;Signal;HPM_P1;HPM_P2
2023/03/07 00:01:07;;;;;;;10.23;6.18;;;;;;;8.26;68.93;100467.38;4976001;28;20034;-84
2023/03/07 00:03:33;;;;;;;11.55;6.60;;;;;;;8.17;69.13;100462.59;4992864;28;20037;-84
2023/03/07 00:06:06;;;;;;;12.15;6.28;;;;;;;8.20;66.93;100462.47;4976125;28;20034;-84
2023/03/07 00:08:32;;;;;;;7.28;5.38;;;;;;;8.23;67.78;100459.75;4975743;28;20030;-84
2023/03/07 00:11:05;;;;;;;10.70;6.07;;;;;;;8.23;66.36;100452.00;4975687;28;20036;-84
2023/03/07 00:13:31;;;;;;;7.95;5.50;;;;;;;8.21;65.06;100451.25;4959196;28;20085;-83
2023/03/07 00:16:03;;;;;;;9.20;4.47;;;;;;;8.16;64.50;100435.16;4975650;28;20492;-84
2023/03/07 00:18:29;;;;;;;6.25;4.18;;;;;;;8.25;65.77;100462.25;4959474;28;20081;-84
2023/03/07 00:21:05;;;;;;;8.70;5.28;;;;;;;8.22;64.20;100450.34;4959364;28;20404;-84
2023/03/07 00:23:32;;;;;;;6.75;4.00;;;;;;;8.22;63.66;100445.19;4975291;28;20062;-84
2023/03/07 00:25:59;;;;;;;6.03;4.07;;;;;;;8.11;63.95;100449.94;4975319;28;20022;-84
2023/03/07 00:28:24;;;;;;;7.18;4.97;;;;;;;8.05;65.09;100437.31;4959045;28;20032;-84
2023/03/07 00:30:49;;;;;;;9.05;4.93;;;;;;;8.03;65.52;100442.53;4975005;28;20030;-84
2023/03/07 00:33:15;;;;;;;7.18;5.18;;;;;;;8.00;64.88;100428.94;4975162;28;20030;-84
2023/03/07 00:35:40;;;;;;;9.88;5.78;;;;;;;7.93;65.75;100422.38;4959044;28;20432;-84
2023/03/07 00:38:06;;;;;;;9.00;4.72;;;;;;;8.05;65.52;100432.16;4974931;28;20031;-84
2023/03/07 00:40:31;;;;;;;16.08;5.30;;;;;;;7.78;65.13;100386.97;4975156;28;20046;-84
2023/03/07 00:42:57;;;;;;;8.55;5.53;;;;;;;8.09;65.10;100435.47;4974687;28;20030;-84
2023/03/07 00:45:22;;;;;;;6.38;4.53;;;;;;;8.05;65.28;100429.59;4991251;28;20034;-84
2023/03/07 00:47:48;;;;;;;6.57;5.10;;;;;;;8.12;65.95;100438.75;4974823;28;20140;-84
2023/03/07 00:50:13;;;;;;;8.50;5.47;;;;;;;8.03;67.35;100428.81;4974303;28;20046;-83
2023/03/07 00:52:39;;;;;;;6.93;4.40;;;;;;;8.07;66.77;100429.53;4991030;28;20041;-84
2023/03/07 00:55:04;;;;;;;6.35;4.28;;;;;;;7.97;66.22;100403.31;4991117;28;20057;-84
2023/03/07 00:57:30;;;;;;;6.78;4.38;;;;;;;8.05;65.11;100419.28;4974555;28;20027;-84
2023/03/07 00:59:55;;;;;;;11.85;5.18;;;;;;;8.06;65.51;100415.78;4975057;28;20042;-84
2023/03/07 01:02:21;;;;;;;8.18;4.15;;;;;;;8.05;64.54;100421.84;4958632;28;20480;-84
2023/03/07 01:04:46;;;;;;;6.38;3.92;;;;;;;8.04;65.63;100409.88;4974736;28;20150;-83
2023/03/07 01:07:12;;;;;;;5.53;3.58;;;;;;;8.08;66.29;100413.19;4974712;28;20507;-84
2023/03/07 01:09:37;;;;;;;6.10;4.28;;;;;;;8.00;66.57;100406.59;4974359;28;20034;-84
2023/03/07 01:12:06;;;;;;;7.63;5.07;;;;;;;8.04;65.72;100395.25;4974229;28;20027;-84
2023/03/07 01:14:32;;;;;;;14.00;5.15;;;;;;;8.06;67.31;100413.22;4974892;28;20113;-84
2023/03/07 01:16:57;;;;;;;7.07;4.95;;;;;;;8.06;66.64;100415.78;4974378;28;20389;-84
2023/03/07 01:19:23;;;;;;;7.43;4.53;;;;;;;8.11;65.36;100420.78;4974793;28;20042;-84
2023/03/07 01:21:48;;;;;;;6.75;3.78;;;;;;;7.98;65.57;100389.53;4958303;28;20096;-84
2023/03/07 01:24:14;;;;;;;8.45;5.80;;;;;;;7.98;65.45;100402.44;4990420;28;20133;-84
2023/03/07 01:26:39;;;;;;;9.20;5.55;;;;;;;8.00;67.07;100398.03;4973972;28;20034;-84
2023/03/07 01:29:05;;;;;;;11.07;6.00;;;;;;;8.10;66.06;100419.09;4974051;28;20476;-84
2023/03/07 01:31:31;;;;;;;8.73;4.95;;;;;;;8.01;66.34;100416.00;4974304;28;20037;-84
2023/03/07 01:33:56;;;;;;;8.20;4.57;;;;;;;7.95;66.26;100410.25;4974428;28;20041;-84
2023/03/07 01:36:27;;;;;;;8.73;4.72;;;;;;;7.96;66.23;100405.06;4974243;28;20515;-83
2023/03/07 01:38:57;;;;;;;8.52;6.43;;;;;;;7.98;66.86;100402.44;4958379;28;20093;-83
2023/03/07 01:41:23;;;;;;;7.95;6.03;;;;;;;7.92;66.53;100394.94;4957757;28;20053;-83
2023/03/07 01:43:48;;;;;;;12.05;6.80;;;;;;;7.87;66.08;100386.59;4974379;28;20037;-84
2023/03/07 01:46:17;;;;;;;8.43;5.57;;;;;;;7.91;68.07;100401.00;4973981;28;20030;-84
2023/03/07 01:48:47;;;;;;;11.73;6.40;;;;;;;7.64;68.53;100370.31;4973992;28;20033;-84
2023/03/07 01:51:13;;;;;;;11.23;5.88;;;;;;;7.70;67.96;100380.38;4957733;28;20041;-83
2023/03/07 01:53:38;;;;;;;11.68;6.60;;;;;;;7.73;67.19;100385.38;4973792;28;20404;-84
2023/03/07 01:56:04;;;;;;;17.40;7.45;;;;;;;7.72;67.24;100382.88;4957883;28;20038;-84
2023/03/07 01:58:29;;;;;;;7.50;5.88;;;;;;;7.75;67.44;100383.59;4973887;28;20041;-84
2023/03/07 02:00:55;;;;;;;13.27;6.65;;;;;;;7.71;67.62;100376.91;4974236;28;20482;-83
2023/03/07 02:03:21;;;;;;;11.38;6.65;;;;;;;7.60;68.92;100368.78;4977225;28;20104;-84
2023/03/07 02:05:55;;;;;;;9.23;5.50;;;;;;;7.72;68.80;100373.41;4994046;28;20332;-83
2023/03/07 02:08:21;;;;;;;10.32;5.78;;;;;;;7.63;69.26;100372.97;4961537;28;20125;-84
2023/03/07 02:10:47;;;;;;;11.65;6.10;;;;;;;7.63;69.04;100378.94;4978023;28;20169;-84
2023/03/07 02:13:12;;;;;;;14.60;6.78;;;;;;;7.63;69.00;100368.66;4977612;28;20500;-84
2023/03/07 02:15:38;;;;;;;9.13;6.80;;;;;;;7.48;68.92;100352.09;4977870;28;20030;-84
2023/03/07 02:18:04;;;;;;;10.63;7.35;;;;;;;7.64;68.76;100372.88;4977843;28;20407;-84
2023/03/07 02:20:47;;;;;;;14.15;7.68;;;;;;;7.71;68.58;100383.78;4977627;28;20034;-84
2023/03/07 02:23:22;;;;;;;12.75;5.93;;;;;;;7.69;68.95;100378.72;4976974;28;20084;-83
2023/03/07 02:25:51;;;;;;;8.63;6.32;;;;;;;7.69;69.24;100389.00;4977865;28;20042;-83
2023/03/07 02:28:17;;;;;;;10.43;5.95;;;;;;;7.76;69.18;100384.41;4994701;28;20085;-83
2023/03/07 02:31:00;;;;;;;13.38;6.25;;;;;;;7.53;67.72;100353.63;4977749;28;20121;-83
2023/03/07 02:33:25;;;;;;;10.88;6.95;;;;;;;7.65;65.26;100387.44;4961226;28;20033;-84
2023/03/07 02:35:55;;;;;;;6.22;4.78;;;;;;;7.51;65.09;100389.75;4977388;28;20026;-84
2023/03/07 02:38:21;;;;;;;11.45;5.32;;;;;;;7.47;66.02;100406.19;4976883;28;20027;-83
2023/03/07 02:40:47;;;;;;;7.68;5.47;;;;;;;7.35;66.38;100391.25;4977394;28;20110;-84
2023/03/07 02:43:13;;;;;;;7.75;4.93;;;;;;;7.27;66.05;100395.84;4977008;28;20030;-84
2023/03/07 02:45:38;;;;;;;10.75;6.28;;;;;;;7.13;66.50;100391.25;4993291;28;20041;-84
2023/03/07 02:48:04;;;;;;;6.68;4.78;;;;;;;7.08;67.56;100401.72;4960813;28;20405;-84
2023/03/07 02:50:29;;;;;;;9.48;4.07;;;;;;;7.04;67.88;100392.41;4977216;28;20030;-84
2023/03/07 02:52:55;;;;;;;7.97;5.82;;;;;;;7.11;67.77;100400.75;4960687;28;20030;-84
2023/03/07 02:55:21;;;;;;;7.00;5.13;;;;;;;7.14;66.75;100400.63;4977270;28;20030;-83
2023/03/07 02:57:47;;;;;;;9.52;5.20;;;;;;;7.19;66.74;100394.41;4977433;28;20034;-84
2023/03/07 03:00:13;;;;;;;10.95;6.32;;;;;;;7.28;66.52;100398.38;4960875;28;20031;-83
2023/03/07 03:02:38;;;;;;;7.82;5.05;;;;;;;7.15;66.36;100377.41;4977141;28;20027;-84
2023/03/07 03:05:05;;;;;;;15.43;6.07;;;;;;;7.19;66.94;100394.41;4960829;28;20037;-84
2023/03/07 03:07:30;;;;;;;10.38;4.97;;;;;;;7.17;66.68;100396.19;4976605;28;20058;-84
2023/03/07 03:09:56;;;;;;;7.35;5.13;;;;;;;7.06;67.31;100384.63;4976616;28;20034;-84
2023/03/07 03:12:22;;;;;;;14.13;6.10;;;;;;;7.05;67.50;100394.09;4960374;28;20035;-83
2023/03/07 03:14:47;;;;;;;10.68;6.65;;;;;;;7.08;68.40;100412.00;4993794;28;20475;-84
2023/03/07 03:17:13;;;;;;;9.23;5.93;;;;;;;6.85;68.40;100376.00;4976469;28;20026;-84
2023/03/07 03:19:38;;;;;;;6.82;4.82;;;;;;;7.02;68.41;100408.81;4992987;28;20026;-84
2023/03/07 03:22:04;;;;;;;10.82;6.53;;;;;;;6.92;68.30;100398.03;4976377;28;20432;-84
2023/03/07 03:24:29;;;;;;;8.20;5.13;;;;;;;6.96;67.84;100407.28;4960148;28;20046;-84
2023/03/07 03:26:56;;;;;;;14.05;5.65;;;;;;;6.88;68.41;100414.44;4976355;28;20030;-84
2023/03/07 03:29:22;;;;;;;9.88;6.15;;;;;;;6.87;69.16;100418.75;4976764;28;20037;-84
2023/03/07 03:31:47;;;;;;;11.05;7.28;;;;;;;6.82;69.00;100425.00;4976328;28;20026;-83
2023/03/07 03:34:13;;;;;;;9.88;6.63;;;;;;;6.65;69.26;100391.34;4976474;28;20448;-83
2023/03/07 03:36:38;;;;;;;9.13;6.97;;;;;;;6.73;69.88;100420.19;4959908;28;20026;-83
2023/03/07 03:39:09;;;;;;;9.70;6.78;;;;;;;6.68;70.32;100422.91;4976584;28;20035;-84
2023/03/07 03:41:35;;;;;;;10.23;7.38;;;;;;;6.57;70.19;100389.88;4977067;28;20480;-84
2023/03/07 03:44:00;;;;;;;9.40;5.85;;;;;;;6.60;69.67;100400.06;4975977;28;20026;-83
2023/03/07 03:46:26;;;;;;;8.25;5.13;;;;;;;6.65;69.75;100401.63;4993273;28;20038;-83
2023/03/07 03:48:52;;;;;;;13.05;7.55;;;;;;;6.65;70.00;100401.63;4976051;28;20038;-83
2023/03/07 03:51:18;;;;;;;8.77;5.32;;;;;;;6.66;69.40;100413.56;4975952;28;20480;-84
2023/03/07 03:53:44;;;;;;;8.68;5.32;;;;;;;6.61;67.83;100406.03;4991851;28;20030;-83
2023/03/07 03:56:14;;;;;;;10.70;4.53;;;;;;;6.48;69.44;100399.66;4991981;28;20041;-82
2023/03/07 03:58:39;;;;;;;7.22;5.65;;;;;;;6.62;69.74;100418.00;4975770;28;20054;-83
2023/03/07 04:01:10;;;;;;;9.82;6.88;;;;;;;6.74;67.36;100417.53;4976252;28;20042;-83
2023/03/07 04:03:42;;;;;;;7.95;6.30;;;;;;;6.89;67.19;100421.31;4975683;28;20508;-83
2023/03/07 04:06:12;;;;;;;;;;;;;;;6.88;67.06;100427.31;4959828;28;20030;-82
2023/03/07 04:08:37;;;;;;;12.90;5.30;;;;;;;6.74;67.42;100401.28;4975544;28;19964;-82
2023/03/07 04:11:03;;;;;;;6.03;4.97;;;;;;;6.79;67.48;100425.09;4992006;28;20034;-82
2023/03/07 04:13:29;;;;;;;12.52;6.55;;;;;;;6.83;66.57;100398.38;4975806;28;20034;-82
2023/03/07 04:15:55;;;;;;;8.23;5.65;;;;;;;7.35;64.59;100424.69;4975408;28;20034;-82
2023/03/07 04:18:21;;;;;;;8.00;6.10;;;;;;;7.36;64.59;100418.66;4959335;28;20488;-92
2023/03/07 04:20:47;;;;;;;10.88;6.85;;;;;;;7.33;64.27;100436.78;4975639;28;20029;-83
2023/03/07 04:23:12;;;;;;;8.00;5.28;;;;;;;7.06;65.51;100429.22;4978209;28;20428;-83
2023/03/07 04:25:38;;;;;;;10.05;6.53;;;;;;;7.05;66.26;100434.41;4977457;28;20030;-84
2023/03/07 04:28:03;;;;;;;13.98;7.25;;;;;;;6.84;66.95;100407.75;4978552;28;20088;-82
2023/03/07 04:30:29;;;;;;;9.75;5.53;;;;;;;6.70;67.24;100416.00;4994311;28;20025;-81
2023/03/07 04:32:54;;;;;;;10.70;6.25;;;;;;;6.78;67.03;100424.25;4995223;28;20026;-92
2023/03/07 04:35:20;;;;;;;11.07;6.45;;;;;;;6.66;67.64;100429.84;4980017;28;20033;-92
2023/03/07 04:37:45;;;;;;;9.93;6.00;;;;;;;6.56;67.79;100431.88;4995870;28;20036;-92
2023/03/07 04:40:11;;;;;;;11.38;7.25;;;;;;;6.51;68.08;100428.66;4979689;28;20034;-92
2023/03/07 04:42:36;;;;;;;11.65;6.90;;;;;;;6.51;68.66;100438.94;4979129;28;20033;-92
2023/03/07 04:45:02;;;;;;;10.85;6.68;;;;;;;6.55;68.01;100445.63;4979571;28;20026;-92
2023/03/07 04:47:28;;;;;;;10.15;6.78;;;;;;;6.44;68.35;100440.03;4979059;28;20045;-92
2023/03/07 04:49:53;;;;;;;13.02;7.63;;;;;;;6.41;68.27;100440.16;4979395;28;20033;-93
2023/03/07 04:52:18;;;;;;;14.38;8.00;;;;;;;6.26;68.20;100440.66;4978834;28;20479;-91
2023/03/07 04:54:44;;;;;;;9.07;6.63;;;;;;;6.31;69.07;100454.22;4995025;28;20038;-91
2023/03/07 04:57:09;;;;;;;17.92;7.38;;;;;;;6.26;69.63;100449.22;4977746;28;20101;-91
2023/03/07 04:59:38;;;;;;;13.90;8.15;;;;;;;6.13;69.88;100444.56;4979122;28;20037;-90
2023/03/07 05:02:06;;;;;;;11.95;7.03;;;;;;;6.15;68.86;100448.75;4974521;28;20495;-87
2023/03/07 05:04:31;;;;;;;13.15;6.75;;;;;;;6.14;68.71;100452.19;4973888;28;20436;-85
2023/03/07 05:06:57;;;;;;;19.90;7.57;;;;;;;6.18;68.51;100455.50;4956759;28;20034;-81
2023/03/07 05:09:22;;;;;;;11.18;6.35;;;;;;;6.13;69.58;100460.78;4992102;28;20034;-80
2023/03/07 05:11:48;;;;;;;10.93;7.30;;;;;;;5.95;69.57;100440.84;4961456;28;20030;-81
2023/03/07 05:14:15;;;;;;;12.00;8.23;;;;;;;6.12;69.34;100473.69;4992603;28;20056;-81
2023/03/07 05:16:41;;;;;;;9.70;6.70;;;;;;;6.09;67.19;100479.75;4990181;28;20030;-92
2023/03/07 05:19:07;;;;;;;12.07;7.68;;;;;;;6.11;68.99;100482.28;4973594;28;20030;-84
2023/03/07 05:21:33;;;;;;;14.32;8.02;;;;;;;6.01;69.76;100464.63;4993348;28;20046;-91
2023/03/07 05:23:58;;;;;;;18.92;10.02;;;;;;;6.03;69.27;100473.09;5144487;23;20143;-93
2023/03/07 05:26:23;;;;;;;12.02;7.57;;;;;;;6.07;68.53;100490.97;4986014;28;20480;-89
2023/03/07 05:28:49;;;;;;;16.98;8.88;;;;;;;5.96;69.07;100463.06;4968106;28;20045;-91
2023/03/07 05:31:14;;;;;;;12.80;8.25;;;;;;;5.88;69.32;100454.75;4977208;28;20241;-92
2023/03/07 05:33:41;;;;;;;15.93;9.65;;;;;;;6.03;69.68;100485.94;5011972;28;20416;-92
2023/03/07 05:36:07;;;;;;;16.15;8.25;;;;;;;5.98;68.07;100469.81;4994289;28;20484;-85
2023/03/07 05:38:33;;;;;;;10.38;6.28;;;;;;;6.11;66.69;100482.28;4993185;28;20416;-87
2023/03/07 05:40:59;;;;;;;12.07;6.13;;;;;;;6.19;65.87;100491.41;5012600;28;20029;-95
2023/03/07 05:43:24;;;;;;;11.40;7.93;;;;;;;6.27;65.76;100496.28;4993138;28;20376;-87
2023/03/07 05:45:49;;;;;;;12.75;6.20;;;;;;;6.37;64.64;100505.38;4978095;28;20257;-83
2023/03/07 05:48:15;;;;;;;8.95;6.07;;;;;;;6.39;64.66;100498.47;4994015;28;20030;-87
2023/03/07 05:50:41;;;;;;;17.58;9.45;;;;;;;6.45;63.70;100508.53;4973318;28;20030;-92
2023/03/07 05:53:07;;;;;;;12.05;8.10;;;;;;;6.21;63.16;100481.09;4984647;28;20038;-85
2023/03/07 05:55:33;;;;;;;8.50;5.38;;;;;;;6.29;62.91;100497.06;4991689;28;20496;-89
2023/03/07 05:57:58;;;;;;;8.32;4.90;;;;;;;6.42;62.17;100508.63;4976444;28;20475;-89
2023/03/07 06:00:24;;;;;;;10.75;6.38;;;;;;;6.50;62.31;100508.38;4974532;28;20109;-86
2023/03/07 06:02:49;;;;;;;10.90;5.47;;;;;;;6.46;61.65;100510.19;4988856;28;20038;-89
2023/03/07 06:05:15;;;;;;;12.07;6.43;;;;;;;6.43;61.89;100483.78;4992457;28;20088;-86
2023/03/07 06:07:40;;;;;;;7.90;5.45;;;;;;;6.50;62.05;100506.66;5009617;28;20034;-92
2023/03/07 06:10:06;;;;;;;9.95;5.43;;;;;;;6.52;61.64;100497.16;4974475;28;20022;-95
2023/03/07 06:12:32;;;;;;;8.88;4.70;;;;;;;6.65;61.86;100510.41;4987211;28;20065;-95
2023/03/07 06:14:57;;;;;;;8.75;6.07;;;;;;;6.74;61.28;100510.09;4992853;28;20057;-86
2023/03/07 06:17:23;;;;;;;9.43;6.03;;;;;;;6.69;62.54;100496.59;4981742;28;20029;-90
2023/03/07 06:19:49;;;;;;;17.85;8.27;;;;;;;6.80;62.26;100498.78;5014272;28;20073;-88
2023/03/07 06:22:15;;;;;;;16.63;8.57;;;;;;;6.81;62.42;100501.28;4992807;28;20117;-84
2023/03/07 06:24:40;;;;;;;11.65;6.50;;;;;;;7.01;62.06;100516.00;4992453;28;20057;-91
2023/03/07 06:27:06;;;;;;;21.65;6.50;;;;;;;6.99;60.47;100502.38;4978407;28;20380;-89
2023/03/07 06:29:31;;;;;;;24.77;6.65;;;;;;;7.05;60.43;100509.84;4992044;28;20034;-92
2023/03/07 06:31:57;;;;;;;26.08;4.55;;;;;;;6.80;59.83;100480.78;5002704;28;20557;-87
2023/03/07 06:34:22;;;;;;;6.80;4.55;;;;;;;7.03;60.00;100509.06;4993077;28;20030;-88
2023/03/07 06:36:48;;;;;;;13.95;4.78;;;;;;;7.02;60.55;100514.28;4980351;28;20066;-93
2023/03/07 06:39:15;;;;;;;13.35;6.85;;;;;;;7.15;60.62;100516.34;4999110;28;20034;-92
2023/03/07 06:41:41;;;;;;;15.57;4.82;;;;;;;6.86;60.17;100470.25;4992944;28;20056;-90
2023/03/07 06:44:07;;;;;;;8.52;6.03;;;;;;;7.16;61.29;100505.16;4975902;28;20495;-86
2023/03/07 06:46:33;;;;;;;11.50;7.00;;;;;;;7.27;61.75;100503.91;4997328;28;20057;-87
2023/03/07 06:48:58;;;;;;;11.95;7.10;;;;;;;7.43;60.37;100516.16;5010336;28;20061;-84
2023/03/07 06:51:24;;;;;;;15.32;6.13;;;;;;;7.52;62.00;100514.97;5010680;28;20045;-91
2023/03/07 06:53:49;;;;;;;13.02;7.05;;;;;;;7.51;61.42;100500.44;4978437;28;20053;-85
2023/03/07 06:56:15;;;;;;;12.23;6.57;;;;;;;7.54;60.28;100514.91;5011516;28;20049;-87
2023/03/07 06:58:40;;;;;;;12.63;7.55;;;;;;;7.63;61.26;100517.13;4990210;28;20037;-87
2023/03/07 07:01:06;;;;;;;14.07;5.13;;;;;;;7.73;59.59;100529.59;4992723;28;20025;-91
2023/03/07 07:03:31;;;;;;;8.35;6.22;;;;;;;7.78;59.19;100526.03;5011169;28;20034;-91
2023/03/07 07:05:57;;;;;;;12.15;5.40;;;;;;;7.82;59.14;100519.84;4997765;28;20034;-88
2023/03/07 07:08:22;;;;;;;11.13;6.20;;;;;;;7.90;59.50;100510.06;4983654;28;20022;-93
2023/03/07 07:10:48;;;;;;;10.90;5.85;;;;;;;8.09;58.93;100513.59;4980707;28;20539;-91
2023/03/07 07:13:13;;;;;;;16.58;7.50;;;;;;;8.15;58.56;100523.63;4979199;28;20033;-90
2023/03/07 07:15:39;;;;;;;10.85;6.65;;;;;;;8.24;58.19;100514.69;4979873;28;20037;-93
2023/03/07 07:18:05;;;;;;;11.15;6.25;;;;;;;8.38;57.16;100520.16;4995251;28;20038;-90
2023/03/07 07:20:30;;;;;;;12.88;6.68;;;;;;;8.52;57.55;100524.75;5003609;28;20059;-88
2023/03/07 07:22:55;;;;;;;13.43;6.97;;;;;;;8.50;56.91;100517.06;4999506;28;20037;-91
2023/03/07 07:25:21;;;;;;;14.98;6.38;;;;;;;8.67;57.25;100529.25;4972623;28;20054;-87
2023/03/07 07:27:46;;;;;;;16.73;5.95;;;;;;;8.62;56.37;100526.03;5008177;28;20044;-91
2023/03/07 07:30:12;;;;;;;15.68;8.48;;;;;;;8.65;56.50;100531.03;4979376;28;20025;-89
2023/03/07 07:32:38;;;;;;;15.10;6.93;;;;;;;8.68;56.17;100501.72;4991566;28;20034;-90
2023/03/07 07:35:04;;;;;;;13.10;7.60;;;;;;;8.86;57.95;100530.16;4995375;28;20022;-95
2023/03/07 07:37:29;;;;;;;9.27;6.45;;;;;;;8.65;58.49;100487.19;4978436;28;20047;-90
2023/03/07 07:39:55;;;;;;;8.10;6.75;;;;;;;9.06;57.88;100525.88;4995412;28;20041;-94
2023/03/07 07:42:20;;;;;;;14.90;7.00;;;;;;;8.86;57.92;100519.84;4982526;28;20029;-91
2023/03/07 07:44:47;;;;;;;13.93;6.85;;;;;;;8.95;57.99;100531.50;4985595;28;20087;-88
2023/03/07 07:47:12;;;;;;;15.73;9.23;;;;;;;8.99;57.70;100519.28;4982008;28;20069;-86
2023/03/07 07:49:38;;;;;;;16.15;9.02;;;;;;;9.80;56.56;100495.75;5008889;28;20621;-86
2023/03/07 07:52:03;;;;;;;18.02;9.77;;;;;;;9.68;56.40;100525.59;5007783;28;20120;-83
2023/03/07 07:54:29;;;;;;;14.55;9.88;;;;;;;9.49;57.42;100535.09;5010317;28;20092;-87
2023/03/07 07:56:56;;;;;;;19.85;11.77;;;;;;;9.23;58.01;100532.84;4979242;28;20028;-89
2023/03/07 07:59:22;;;;;;;12.75;8.02;;;;;;;9.13;57.92;100527.25;5003248;28;20025;-90
2023/03/07 08:01:47;;;;;;;15.13;8.43;;;;;;;9.19;58.12;100540.72;4977900;28;20539;-92
2023/03/07 08:04:13;;;;;;;11.98;7.45;;;;;;;9.24;57.99;100540.50;4968374;28;20026;-87
2023/03/07 08:06:38;;;;;;;7.07;5.05;;;;;;;9.19;58.54;100527.00;4981822;28;20121;-88
2023/03/07 08:09:04;;;;;;;13.82;7.07;;;;;;;9.43;58.50;100546.53;4986825;28;20057;-89
2023/03/07 08:11:29;;;;;;;11.85;6.88;;;;;;;9.41;57.82;100532.00;5009938;28;20040;-86
2023/03/07 08:13:55;;;;;;;16.50;7.97;;;;;;;9.46;58.08;100541.25;4993317;28;20026;-94
2023/03/07 08:16:21;;;;;;;14.88;6.68;;;;;;;9.65;58.20;100545.56;4993602;28;20022;-93
2023/03/07 08:18:54;;;;;;;13.63;7.45;;;;;;;9.77;58.16;100550.16;4994397;28;20037;-91
2023/03/07 08:21:20;;;;;;;13.68;7.65;;;;;;;9.70;57.50;100530.66;4993691;28;20026;-88
2023/03/07 08:23:45;;;;;;;15.85;7.15;;;;;;;9.78;58.23;100537.16;4980559;28;20117;-84
2023/03/07 08:26:12;;;;;;;13.38;7.57;;;;;;;10.02;57.55;100545.47;4977494;28;20136;-88
2023/03/07 08:28:37;;;;;;;9.82;6.78;;;;;;;10.09;57.41;100530.53;5009306;28;20040;-93
2023/03/07 08:31:16;;;;;;;10.23;6.40;;;;;;;10.16;56.73;100518.16;4982556;28;20034;-90
2023/03/07 08:33:42;;;;;;;18.25;7.18;;;;;;;10.17;56.12;100532.75;4990079;28;20472;-89
2023/03/07 08:36:09;;;;;;;9.77;7.07;;;;;;;10.32;57.05;100524.25;4994571;28;20045;-96
2023/03/07 08:38:34;;;;;;;10.30;6.22;;;;;;;10.43;55.99;100501.31;4995024;28;20396;-88
2023/03/07 08:41:04;;;;;;;13.90;5.85;;;;;;;10.55;54.98;100515.38;5010012;28;20026;-89
2023/03/07 08:43:30;;;;;;;9.30;6.88;;;;;;;10.76;54.26;100526.38;4994802;28;20037;-89
2023/03/07 08:45:56;;;;;;;12.90;6.82;;;;;;;10.94;53.05;100517.66;5000776;28;20128;-93
2023/03/07 08:48:21;;;;;;;18.00;8.15;;;;;;;11.03;53.79;100508.59;4978013;28;20053;-87
2023/03/07 08:50:46;;;;;;;8.35;5.78;;;;;;;11.05;53.99;100523.13;4992186;28;20659;-90
2023/03/07 08:53:13;;;;;;;8.13;6.18;;;;;;;11.22;52.99;100513.63;5009054;28;20030;-90
2023/03/07 08:55:38;;;;;;;10.55;5.93;;;;;;;11.23;52.11;100510.13;4992470;28;20087;-86
2023/03/07 08:58:04;;;;;;;10.00;6.10;;;;;;;11.41;51.92;100512.56;5010624;28;20077;-88
2023/03/07 09:00:29;;;;;;;14.02;6.97;;;;;;;11.54;50.80;100517.06;4993509;28;20040;-85
2023/03/07 09:02:57;;;;;;;14.65;7.68;;;;;;;11.68;51.45;100522.31;4995965;28;20389;-86
2023/03/07 09:05:23;;;;;;;12.07;6.70;;;;;;;11.78;51.24;100515.72;5008034;28;20022;-83
2023/03/07 09:07:48;;;;;;;13.68;7.45;;;;;;;11.77;50.43;100493.31;5005727;28;20164;-86
2023/03/07 09:10:16;;;;;;;20.85;9.15;;;;;;;12.01;52.20;100504.09;4974532;28;20033;-92
2023/03/07 09:12:41;;;;;;;10.77;7.32;;;;;;;12.09;49.56;100485.50;5000983;28;20040;-86
2023/03/07 09:15:07;;;;;;;10.43;6.93;;;;;;;12.57;48.91;100503.38;4992381;28;20025;-90
2023/03/07 09:17:33;;;;;;;14.25;8.40;;;;;;;12.72;50.59;100508.63;4989314;28;20030;-87
2023/03/07 09:19:58;;;;;;;19.38;9.95;;;;;;;12.90;49.06;100505.75;4991902;28;21308;-95
2023/03/07 09:22:24;;;;;;;13.07;7.00;;;;;;;12.89;47.00;100478.13;4993630;28;20167;-88
2023/03/07 09:24:49;;;;;;;13.88;8.68;;;;;;;13.08;46.32;100505.56;4975863;28;20049;-85
2023/03/07 09:27:15;;;;;;;16.23;7.57;;;;;;;13.09;48.26;100504.63;4991818;28;20032;-86
2023/03/07 09:29:40;;;;;;;13.35;7.63;;;;;;;13.21;47.34;100501.31;5008836;28;20026;-85
2023/03/07 09:32:06;;;;;;;18.83;11.00;;;;;;;13.22;48.46;100500.38;4991698;28;20450;-87
2023/03/07 09:34:31;;;;;;;16.70;9.02;;;;;;;13.10;48.07;100490.72;4992082;28;20033;-86
2023/03/07 09:36:56;;;;;;;21.27;7.80;;;;;;;13.14;48.07;100497.38;5009705;28;20168;-91
2023/03/07 09:39:22;;;;;;;14.32;8.05;;;;;;;13.14;45.99;100476.59;5007523;28;20402;-85
2023/03/07 09:41:55;;;;;;;12.80;7.55;;;;;;;13.24;45.87;100477.72;4989753;28;20022;-87
2023/03/07 09:44:47;;;;;;;15.55;7.72;;;;;;;13.31;46.43;100489.41;4976153;28;20057;-90
2023/03/07 09:47:31;;;;;;;12.40;7.68;;;;;;;13.43;46.80;100483.44;4959893;28;20619;-91
2023/03/07 09:49:56;;;;;;;18.23;7.90;;;;;;;13.51;46.33;100469.13;5009791;28;20032;-89
2023/03/07 09:52:23;;;;;;;15.55;7.95;;;;;;;13.74;46.58;100471.09;4995163;28;20030;-94
2023/03/07 09:55:01;;;;;;;20.13;9.23;;;;;;;13.79;46.39;100471.66;4993815;28;20046;-93
2023/03/07 09:57:35;;;;;;;15.98;7.72;;;;;;;13.68;46.13;100458.50;4990594;28;20050;-87
2023/03/07 10:00:28;;;;;;;12.88;8.27;;;;;;;13.74;48.15;100471.09;4978175;28;20029;-95
2023/03/07 10:03:13;;;;;;;11.77;7.95;;;;;;;13.62;45.78;100466.69;5004753;28;20125;-91
2023/03/07 10:05:42;;;;;;;15.30;8.32;;;;;;;13.45;46.95;100453.00;5008361;28;20096;-84
2023/03/07 10:08:14;;;;;;;17.02;9.02;;;;;;;13.47;47.53;100453.75;4994638;28;20026;-84
2023/03/07 10:10:48;;;;;;;15.85;7.72;;;;;;;13.60;47.14;100455.56;4986830;28;20057;-85
2023/03/07 10:13:43;;;;;;;15.68;7.28;;;;;;;13.68;46.77;100458.50;4990640;28;20500;-90
2023/03/07 10:16:27;;;;;;;13.90;7.90;;;;;;;13.86;47.10;100459.91;5008661;28;20030;-92
2023/03/07 10:18:57;;;;;;;11.13;6.70;;;;;;;13.90;46.28;100445.78;4993421;28;20483;-87
2023/03/07 10:21:43;;;;;;;13.38;6.50;;;;;;;13.83;45.87;100413.28;5008138;28;20132;-88
2023/03/07 10:24:30;;;;;;;10.70;6.32;;;;;;;14.09;46.40;100444.56;4994948;28;20530;-95
2023/03/07 10:27:14;;;;;;;14.05;6.97;;;;;;;14.37;44.92;100433.16;4995637;28;20164;-90
2023/03/07 10:29:46;;;;;;;12.23;6.03;;;;;;;14.55;45.51;100437.97;4992998;28;20036;-93
2023/03/07 10:32:14;;;;;;;15.93;7.82;;;;;;;14.66;44.90;100426.00;4996671;28;20033;-91
2023/03/07 10:34:39;;;;;;;13.82;7.22;;;;;;;14.71;44.37;100422.09;5014227;28;20108;-86
2023/03/07 10:37:29;;;;;;;12.73;7.57;;;;;;;14.67;44.09;100393.81;4978825;28;20034;-89
2023/03/07 10:39:55;;;;;;;15.27;7.22;;;;;;;14.80;44.88;100400.63;4989045;28;20022;-87
2023/03/07 10:42:22;;;;;;;16.17;8.55;;;;;;;15.11;43.92;100414.94;5013115;28;20026;-94
2023/03/07 10:44:48;;;;;;;18.67;8.52;;;;;;;15.02;44.06;100373.91;4995867;28;20108;-88
2023/03/07 10:47:19;;;;;;;13.40;7.60;;;;;;;15.33;43.16;100408.19;4985535;28;20170;-94
2023/03/07 10:49:45;;;;;;;16.27;7.40;;;;;;;15.28;43.70;100384.25;4997328;28;20487;-90
2023/03/07 10:52:14;;;;;;;20.02;9.45;;;;;;;15.42;42.99;100400.53;4992277;28;20027;-87
2023/03/07 10:54:39;;;;;;;16.65;8.52;;;;;;;15.57;42.84;100389.94;5008135;28;20080;-85
2023/03/07 10:57:13;;;;;;;16.45;9.57;;;;;;;15.54;42.70;100362.34;4993824;28;20034;-91
2023/03/07 10:59:43;;;;;;;14.68;7.63;;;;;;;15.70;42.40;100368.09;4966432;28;20483;-85
2023/03/07 11:02:44;;;;;;;17.15;8.02;;;;;;;15.72;42.69;100379.22;4979080;28;20060;-91
2023/03/07 11:05:25;;;;;;;11.57;7.53;;;;;;;15.88;42.62;100372.88;4975532;28;20479;-91
2023/03/07 11:07:50;;;;;;;22.33;9.88;;;;;;;15.98;42.30;100371.25;5011933;28;20041;-89
2023/03/07 11:10:37;;;;;;;18.05;8.13;;;;;;;16.03;42.24;100358.69;4995097;28;20034;-88
2023/03/07 11:13:14;;;;;;;15.68;8.05;;;;;;;16.11;42.23;100348.47;4999253;28;20073;-94
2023/03/07 11:15:39;;;;;;;22.27;10.23;;;;;;;16.31;42.03;100350.41;4997646;28;20033;-91
2023/03/07 11:18:26;;;;;;;16.95;7.93;;;;;;;16.46;42.34;100342.34;4973407;28;20432;-92
2023/03/07 11:20:51;;;;;;;16.60;9.60;;;;;;;16.48;42.17;100303.88;4976430;28;20030;-85
2023/03/07 11:23:25;;;;;;;14.10;7.30;;;;;;;16.69;40.91;100323.09;4994712;28;20837;-95
2023/03/07 11:25:51;;;;;;;14.13;6.63;;;;;;;16.80;41.00;100328.31;4994526;28;21201;-90
2023/03/07 11:28:24;;;;;;;14.25;7.72;;;;;;;16.86;40.62;100312.16;4994213;28;20044;-86